Time;durP1;ratioP1;P1;durP2;ratioP2;P2;SDS_P1;SDS_P2;PMS_P1;PMS_P2;Temp;Humidity;BMP_temperature;BMP_pressure;BME280_temperature;BME280_humidity;BME280_pressure;Samples;Min_cycle;Max_cycle;Signal;HPM_P1;HPM_P2
2021/06/18 00:03:16;;;;;;;6.93;3.33;;;;;;;18.40;73.19;100894.13;713879;1200;114359;-84
2021/06/18 00:18:18;;;;;;;10.00;4.60;;;;;;;18.15;74.01;100904.81;713749;1188;115673;-83
2021/06/18 00:33:20;;;;;;;17.17;8.50;;;;;;;17.67;75.81;100910.02;713844;1202;114780;-83
2021/06/18 00:48:23;;;;;;;10.10;6.25;;;;;;;17.32;77.82;100908.52;714016;1203;115962;-82
2021/06/18 01:03:25;;;;;;;10.93;6.03;;;;;;;16.97;79.70;100900.64;714602;1203;114576;-83
2021/06/18 01:18:33;;;;;;;13.48;7.83;;;;;;;16.65;81.57;100896.88;714264;1202;114776;-83
2021/06/18 01:33:39;;;;;;;13.93;6.98;;;;;;;16.31;83.17;100895.08;714304;1202;115228;-81
2021/06/18 01:48:46;;;;;;;19.00;9.70;;;;;;;16.03;85.23;100889.97;714540;1202;114043;-81
2021/06/18 02:03:49;;;;;;;14.58;9.15;;;;;;;15.81;86.58;100899.27;714311;1202;114771;-82
2021/06/18 02:18:54;;;;;;;22.35;9.95;;;;;;;15.57;88.34;100897.22;714352;1205;114565;-82
2021/06/18 02:33:57;;;;;;;9.10;6.60;;;;;;;15.38;89.00;100900.88;713940;1203;114640;-82
2021/06/18 02:49:01;;;;;;;8.60;5.68;;;;;;;15.31;89.68;100901.47;714256;1202;115457;-82
2021/06/18 03:04:04;;;;;;;7.63;5.85;;;;;;;15.57;91.19;100915.73;714247;1202;114988;-82
2021/06/18 03:19:10;;;;;;;9.27;6.63;;;;;;;15.57;91.78;100919.23;714275;1202;115273;-83
2021/06/18 03:34:13;;;;;;;9.83;5.73;;;;;;;15.91;91.63;100918.50;713808;1203;113692;-82
2021/06/18 03:49:17;;;;;;;6.40;5.10;;;;;;;16.58;91.54;100903.82;714297;1202;114288;-82
2021/06/18 04:04:21;;;;;;;8.90;4.97;;;;;;;17.66;88.23;100903.04;713904;1202;114836;-83
2021/06/18 04:19:24;;;;;;;10.78;4.73;;;;;;;18.40;86.50;100910.06;714017;1202;113849;-83
2021/06/18 04:34:27;;;;;;;14.35;4.60;;;;;;;19.06;85.24;100905.27;714526;1200;115353;-83
2021/06/18 04:49:29;;;;;;;7.50;3.90;;;;;;;19.74;84.32;100912.55;714324;1205;113725;-83
2021/06/18 05:04:32;;;;;;;8.00;4.00;;;;;;;20.44;82.74;100919.36;717510;1166;115450;-85
2021/06/18 05:19:34;;;;;;;5.38;3.73;;;;;;;21.09;80.54;100922.19;714899;1200;114622;-85
2021/06/18 05:34:37;;;;;;;13.03;3.93;;;;;;;21.63;78.14;100922.72;714166;1200;114173;-85
2021/06/18 05:49:39;;;;;;;14.03;6.78;;;;;;;22.21;75.43;100919.83;714137;1200;115315;-85
2021/06/18 06:04:41;;;;;;;15.05;6.95;;;;;;;22.80;74.20;100906.94;714197;1202;114313;-86
2021/06/18 06:19:44;;;;;;;13.50;5.50;;;;;;;23.49;72.93;100912.23;714699;1200;115407;-87
2021/06/18 06:34:47;;;;;;;7.30;5.30;;;;;;;23.70;71.46;100901.33;714385;1202;114464;-87
2021/06/18 06:49:48;;;;;;;9.55;4.80;;;;;;;24.09;71.10;100894.27;714757;1204;114348;-87
2021/06/18 07:04:51;;;;;;;9.30;4.45;;;;;;;24.71;72.10;100896.53;715149;1202;115313;-87
2021/06/18 07:19:54;;;;;;;15.10;4.75;;;;;;;25.95;70.40;100892.52;715436;1200;114514;-77
2021/06/18 07:34:56;;;;;;;14.85;4.80;;;;;;;26.29;68.77;100890.31;719617;1178;114443;-90
2021/06/18 07:49:59;;;;;;;9.65;4.18;;;;;;;27.31;67.14;100880.62;717483;1177;114011;-91
2021/06/18 08:05:01;;;;;;;6.98;3.70;;;;;;;28.14;63.52;100887.91;714274;1200;114370;-81
2021/06/18 08:20:05;;;;;;;5.28;2.98;;;;;;;29.16;61.05;100875.50;715596;1200;114484;-79
2021/06/18 08:35:08;;;;;;;3.78;3.28;;;;;;;29.75;57.56;100870.72;714001;1202;114413;-79
2021/06/18 08:50:11;;;;;;;5.08;3.28;;;;;;;30.34;55.77;100865.55;714990;1205;114393;-87
2021/06/18 09:05:15;;;;;;;9.78;3.33;;;;;;;30.78;53.19;100867.37;715920;1205;114528;-86
2021/06/18 09:20:24;;;;;;;4.80;2.95;;;;;;;31.20;52.76;100839.58;715648;1200;113795;-87
2021/06/18 09:35:28;;;;;;;9.50;4.20;;;;;;;31.22;52.91;100833.89;716025;1177;113802;-91
2021/06/18 09:50:31;;;;;;;7.30;3.95;;;;;;;31.52;53.86;100829.75;716978;1202;114468;-79
2021/06/18 10:05:36;;;;;;;6.23;3.68;;;;;;;31.60;54.70;100815.69;715471;1200;114235;-81
2021/06/18 10:20:39;;;;;;;9.17;5.20;;;;;;;32.09;54.59;100822.69;715328;1200;115021;-82
2021/06/18 10:35:47;;;;;;;7.70;5.87;;;;;;;32.76;54.35;100792.19;715532;1200;114361;-82
2021/06/18 10:50:49;;;;;;;6.87;4.37;;;;;;;33.57;53.08;100792.31;715648;1202;113888;-89
2021/06/18 11:05:51;;;;;;;7.33;5.50;;;;;;;33.62;52.85;100779.50;715535;1202;114558;-89
2021/06/18 11:20:55;;;;;;;7.00;4.17;;;;;;;33.98;50.82;100768.48;716924;1200;113888;-87
2021/06/18 11:35:59;;;;;;;4.27;3.63;;;;;;;34.16;50.54;100764.27;719998;1202;113722;-86
2021/06/18 11:51:01;;;;;;;11.95;3.85;;;;;;;34.04;50.19;100757.55;716066;1202;114477;-86
2021/06/18 12:06:21;;;;;;;11.13;3.63;;;;;;;34.37;49.68;100753.28;715790;1200;113825;-85
2021/06/18 12:21:28;;;;;;;8.50;3.30;;;;;;;34.15;48.60;100750.95;715874;1202;114071;-86
2021/06/18 12:36:34;;;;;;;10.27;3.23;;;;;;;34.63;48.48;100725.81;715629;1205;114249;-90
2021/06/18 12:51:38;;;;;;;8.65;3.30;;;;;;;34.71;46.69;100725.22;714572;1201;114724;-80
2021/06/18 13:06:50;;;;;;;3.18;2.75;;;;;;;34.80;46.59;100714.48;714466;1189;113877;-79
2021/06/18 13:21:55;;;;;;;8.38;3.28;;;;;;;34.88;46.06;100707.63;713877;1202;115095;-79
2021/06/18 13:37:06;;;;;;;3.63;2.83;;;;;;;34.58;45.55;100701.34;714178;1200;114861;-79
2021/06/18 13:52:08;;;;;;;3.23;2.78;;;;;;;34.79;44.50;100685.61;713938;1202;114755;-78
2021/06/18 14:07:15;;;;;;;;;;;;;;;34.80;43.74;100682.63;715029;1207;113917;-79
2021/06/18 14:22:18;;;;;;;5.60;2.75;;;;;;;34.90;44.49;100657.20;715677;1177;101055;-89
2021/06/18 14:37:20;;;;;;;3.43;2.68;;;;;;;34.50;43.61;100659.24;715673;1200;113681;-85
2021/06/18 14:52:22;;;;;;;7.50;2.75;;;;;;;34.53;43.57;100655.94;715650;1200;113760;-87
2021/06/18 15:07:25;;;;;;;5.87;2.53;;;;;;;33.98;44.37;100637.89;715675;1200;116464;-87
2021/06/18 15:22:27;;;;;;;4.18;3.00;;;;;;;33.65;44.82;100640.27;715730;1200;114287;-90
2021/06/18 15:37:30;;;;;;;7.60;3.57;;;;;;;33.99;45.82;100616.92;715492;1202;113915;-79
2021/06/18 15:52:34;;;;;;;5.53;2.50;;;;;;;33.46;45.80;100614.83;713849;1202;114207;-83
2021/06/18 16:07:38;;;;;;;7.65;3.35;;;;;;;33.18;47.12;100603.55;713881;1202;114410;-78
2021/06/18 16:22:45;;;;;;;8.75;4.23;;;;;;;33.04;47.64;100605.23;714062;1202;114213;-83
2021/06/18 16:37:47;;;;;;;6.93;3.83;;;;;;;33.02;50.18;100597.34;714467;1203;114347;-85
2021/06/18 16:52:50;;;;;;;11.85;4.10;;;;;;;32.64;49.78;100605.88;714265;1200;114961;-85
2021/06/18 17:07:55;;;;;;;5.98;3.80;;;;;;;32.21;51.68;100597.27;714483;1177;113987;-86
2021/06/18 17:22:57;;;;;;;6.57;3.50;;;;;;;31.64;53.47;100599.94;715100;1200;113744;-85
2021/06/18 17:37:59;;;;;;;5.90;3.73;;;;;;;30.91;54.93;100592.64;714010;1200;114645;-76
2021/06/18 17:53:01;;;;;;;10.97;4.07;;;;;;;30.15;55.92;100585.65;713510;1178;114442;-79
2021/06/18 18:08:04;;;;;;;4.20;3.80;;;;;;;29.77;56.62;100595.57;713980;1200;114303;-78
2021/06/18 18:23:07;;;;;;;5.07;3.70;;;;;;;29.09;58.15;100606.69;713932;1202;113804;-79
2021/06/18 18:38:10;;;;;;;5.43;3.63;;;;;;;28.54;58.52;100611.88;714048;1200;115171;-87
2021/06/18 18:53:13;;;;;;;6.80;4.15;;;;;;;28.01;59.86;100614.81;717387;1185;114789;-91
2021/06/18 19:08:15;;;;;;;4.53;4.08;;;;;;;27.49;60.79;100609.52;715313;1177;114218;-80
2021/06/18 19:23:17;;;;;;;8.37;5.30;;;;;;;27.02;62.29;100618.53;714003;1200;114439;-81
2021/06/18 19:38:19;;;;;;;6.15;5.25;;;;;;;26.58;63.64;100614.32;714195;1202;114353;-81
2021/06/18 19:53:22;;;;;;;7.20;6.40;;;;;;;26.19;65.33;100640.00;714364;1200;114628;-87
2021/06/18 20:08:24;;;;;;;7.83;4.83;;;;;;;25.82;66.85;100637.41;716000;1203;114760;-86
2021/06/18 20:23:27;;;;;;;7.97;5.50;;;;;;;25.54;67.93;100650.37;715850;1202;115032;-88
2021/06/18 20:38:29;;;;;;;6.70;5.73;;;;;;;25.17;70.54;100654.92;715811;1201;114292;-86
2021/06/18 20:53:34;;;;;;;21.37;14.37;;;;;;;24.94;71.73;100655.55;716208;1200;114308;-86
2021/06/18 21:08:37;;;;;;;7.38;5.78;;;;;;;24.79;72.20;100655.91;715988;1190;114244;-86
2021/06/18 21:23:39;;;;;;;5.93;5.33;;;;;;;24.56;73.79;100649.25;716014;1177;113863;-88
2021/06/18 21:38:42;;;;;;;6.00;5.40;;;;;;;24.32;75.05;100658.94;716043;1177;113737;-87
2021/06/18 21:53:44;;;;;;;6.00;5.50;;;;;;;24.13;76.09;100656.17;715860;1200;115330;-87
2021/06/18 22:08:46;;;;;;;6.53;5.73;;;;;;;23.87;76.98;100654.45;715425;1200;114644;-87
2021/06/18 22:23:48;;;;;;;9.13;5.93;;;;;;;23.61;78.00;100656.23;715976;1202;114430;-86
2021/06/18 22:38:52;;;;;;;6.63;6.00;;;;;;;23.31;80.04;100647.91;715943;1200;114371;-90
2021/06/18 22:53:54;;;;;;;6.85;6.15;;;;;;;22.98;81.94;100649.59;716299;1200;114890;-85
2021/06/18 23:08:56;;;;;;;8.30;6.67;;;;;;;22.72;83.22;100637.88;716243;1202;115017;-85
2021/06/18 23:23:58;;;;;;;9.75;6.78;;;;;;;22.50;83.92;100636.45;715861;1200;114068;-89
2021/06/18 23:39:00;;;;;;;9.27;6.93;;;;;;;22.24;85.65;100646.09;716754;1200;114732;-89
2021/06/18 23:54:02;;;;;;;11.38;6.50;;;;;;;22.20;85.90;100651.00;717823;1200;114268;-88
